Time,TemperatureF,DewpointF,PressureIn,WindDirection,WindDirectionDegrees,WindSpeedMPH,WindSpeedGustMPH,Humidity,HourlyPrecipIn,Conditions,Clouds,dailyrainin,SoftwareType,DateUTC
2013-05-23 00:02:00,50.0,45.0,-100.00,NNE,15,-999.0,-999.0,83,-99.99,,,-99.99,,2013-05-23 07:02:00,
2013-05-23 00:11:00,50.0,45.0,-100.00,NNE,15,-999.0,-999.0,83,-99.99,,,-99.99,,2013-05-23 07:11:00,
2013-05-23 00:21:00,50.0,46.0,-100.00,NNE,15,-999.0,-999.0,87,-99.99,,,-99.99,,2013-05-23 07:21:00,
2013-05-23 00:31:00,50.0,46.0,-100.00,NNE,15,-999.0,-999.0,87,-99.99,,,-99.99,,2013-05-23 07:31:00,
2013-05-23 00:42:00,50.0,46.0,-100.00,NNE,15,-999.0,-999.0,87,-99.99,,,-99.99,,2013-05-23 07:42:00,
2013-05-23 00:59:00,50.0,46.0,-100.00,NNE,15,-999.0,-999.0,86,-99.99,,,-99.99,,2013-05-23 07:59:00,
2013-05-23 01:11:00,50.0,46.0,-100.00,NNE,15,-999.0,-999.0,86,-99.99,,,-99.99,,2013-05-23 08:11:00,
2013-05-23 01:21:00,49.0,44.0,-100.00,ENE,60,-999.0,-999.0,84,-99.99,,,-99.99,,2013-05-23 08:21:00,
2013-05-23 01:31:00,49.0,44.0,-100.00,ENE,60,-999.0,-999.0,84,-99.99,,,-99.99,,2013-05-23 08:31:00,
2013-05-23 01:41:00,49.0,44.0,-100.00,ENE,60,-999.0,-999.0,84,-99.99,,,-99.99,,2013-05-23 08:41:00,
2013-05-23 01:51:00,50.0,43.0,-100.00,NNE,24,-999.0,-999.0,77,-99.99,,,-99.99,,2013-05-23 08:51:00,
2013-05-23 02:01:00,50.0,43.0,-100.00,NNE,24,-999.0,-999.0,77,-99.99,,,-99.99,,2013-05-23 09:01:00,
2013-05-23 02:11:00,50.0,43.0,-100.00,NNE,24,-999.0,-999.0,77,-99.99,,,-99.99,,2013-05-23 09:11:00,
2013-05-23 02:21:00,51.0,47.0,-100.00,NNE,13,-999.0,-999.0,86,-99.99,,,-99.99,,2013-05-23 09:21:00,
2013-05-23 02:33:00,51.0,47.0,-100.00,NNE,13,-999.0,-999.0,86,-99.99,,,-99.99,,2013-05-23 09:33:00,
2013-05-23 02:42:00,51.0,47.0,-100.00,NNE,13,-999.0,-999.0,86,-99.99,,,-99.99,,2013-05-23 09:42:00,
2013-05-23 02:53:00,52.0,51.0,-100.00,NNE,19,-999.0,-999.0,95,-99.99,,,-99.99,,2013-05-23 09:53:00,
2013-05-23 03:02:00,52.0,51.0,-100.00,NNE,19,-999.0,-999.0,95,-99.99,,,-99.99,,2013-05-23 10:02:00,
2013-05-23 03:12:00,52.0,51.0,-100.00,NNE,19,-999.0,-999.0,95,-99.99,,,-99.99,,2013-05-23 10:12:00,
2013-05-23 03:22:00,52.0,51.0,-100.00,NNE,21,-999.0,-999.0,97,-99.99,,,-99.99,,2013-05-23 10:22:00,
2013-05-23 03:32:00,52.0,51.0,-100.00,NNE,21,-999.0,-999.0,97,-99.99,,,-99.99,,2013-05-23 10:32:00,
2013-05-23 03:42:00,52.0,51.0,-100.00,NNE,21,-999.0,-999.0,97,-99.99,,,-99.99,,2013-05-23 10:42:00,
2013-05-23 03:52:00,54.0,53.0,-100.00,North,1,-999.0,-999.0,97,-99.99,,,0.00,,2013-05-23 10:52:00,
2013-05-23 04:02:00,54.0,53.0,-100.00,North,1,-999.0,-999.0,97,-99.99,,,0.00,,2013-05-23 11:02:00,
2013-05-23 04:11:00,54.0,53.0,-100.00,North,1,-999.0,-999.0,97,-99.99,,,0.00,,2013-05-23 11:11:00,
2013-05-23 04:21:00,54.0,53.0,-100.00,ENE,59,-999.0,-999.0,96,-99.99,,,-99.99,,2013-05-23 11:21:00,
2013-05-23 04:32:00,54.0,53.0,-100.00,ENE,59,-999.0,-999.0,96,-99.99,,,-99.99,,2013-05-23 11:32:00,
2013-05-23 04:41:00,54.0,53.0,-100.00,ENE,59,-999.0,-999.0,96,-99.99,,,-99.99,,2013-05-23 11:41:00,
2013-05-23 04:52:00,54.0,53.0,-100.00,ENE,59,-999.0,-999.0,97,-99.99,,,-99.99,,2013-05-23 11:52:00,
2013-05-23 05:01:00,54.0,53.0,-100.00,ENE,59,-999.0,-999.0,97,-99.99,,,-99.99,,2013-05-23 12:01:00,
2013-05-23 05:11:00,54.0,53.0,-100.00,ENE,59,-999.0,-999.0,97,-99.99,,,-99.99,,2013-05-23 12:11:00,
2013-05-23 05:21:00,53.0,52.0,-100.00,ESE,102,-999.0,-999.0,97,-99.99,,,-99.99,,2013-05-23 12:21:00,
2013-05-23 05:32:00,53.0,52.0,-100.00,ESE,102,-999.0,-999.0,97,-99.99,,,-99.99,,2013-05-23 12:32:00,
2013-05-23 05:42:00,53.0,52.0,-100.00,ESE,102,-999.0,-999.0,97,-99.99,,,-99.99,,2013-05-23 12:42:00,
2013-05-23 05:52:00,53.0,53.0,-100.00,ESE,102,-999.0,-999.0,99,-99.99,,,-99.99,,2013-05-23 12:52:00,
2013-05-23 06:01:00,53.0,53.0,-100.00,ESE,102,-999.0,-999.0,99,-99.99,,,-99.99,,2013-05-23 13:01:00,
2013-05-23 06:11:00,53.0,53.0,-100.00,ESE,102,-999.0,-999.0,99,-99.99,,,-99.99,,2013-05-23 13:11:00,
2013-05-23 06:21:00,53.0,53.0,-100.00,SE,140,-999.0,-999.0,99,-99.99,,,-99.99,,2013-05-23 13:21:00,
2013-05-23 06:31:00,53.0,53.0,-100.00,SE,140,-999.0,-999.0,99,-99.99,,,-99.99,,2013-05-23 13:31:00,
2013-05-23 06:41:00,53.0,53.0,-100.00,SE,140,-999.0,-999.0,99,-99.99,,,-99.99,,2013-05-23 13:41:00,
2013-05-23 06:52:00,52.0,52.0,-100.00,SE,140,-999.0,-999.0,100,-99.99,,,-99.99,,2013-05-23 13:52:00,
2013-05-23 07:01:00,52.0,52.0,-100.00,SE,140,-999.0,-999.0,100,-99.99,,,-99.99,,2013-05-23 14:01:00,
2013-05-23 07:11:00,52.0,52.0,-100.00,SE,140,-999.0,-999.0,100,-99.99,,,-99.99,,2013-05-23 14:11:00,
2013-05-23 07:21:00,53.0,53.0,-100.00,SE,140,-999.0,-999.0,99,-99.99,,,-99.99,,2013-05-23 14:21:00,
2013-05-23 07:32:00,53.0,53.0,-100.00,SE,140,-999.0,-999.0,99,-99.99,,,-99.99,,2013-05-23 14:32:00,
2013-05-23 07:41:00,53.0,53.0,-100.00,SE,140,-999.0,-999.0,99,-99.99,,,-99.99,,2013-05-23 14:41:00,
2013-05-23 07:52:00,54.0,53.0,-100.00,North,-999,-999.0,-999.0,96,-99.99,,,-99.99,,2013-05-23 14:52:00,
2013-05-23 08:01:00,54.0,53.0,-100.00,North,-999,-999.0,-999.0,96,-99.99,,,-99.99,,2013-05-23 15:01:00,
2013-05-23 08:11:00,54.0,53.0,-100.00,North,-999,-999.0,-999.0,96,-99.99,,,-99.99,,2013-05-23 15:11:00,
2013-05-23 08:21:00,55.0,54.0,-100.00,SSE,166,-999.0,-999.0,95,-99.99,,,-99.99,,2013-05-23 15:21:00,
2013-05-23 08:32:00,55.0,54.0,-100.00,SSE,166,-999.0,-999.0,95,-99.99,,,-99.99,,2013-05-23 15:32:00,
2013-05-23 08:42:00,55.0,54.0,-100.00,SSE,166,-999.0,-999.0,95,-99.99,,,-99.99,,2013-05-23 15:42:00,
2013-05-23 08:53:00,58.0,53.0,-100.00,South,172,-999.0,-999.0,84,-99.99,,,-99.99,,2013-05-23 15:53:00,
2013-05-23 09:03:00,58.0,53.0,-100.00,South,172,-999.0,-999.0,84,-99.99,,,-99.99,,2013-05-23 16:03:00,
2013-05-23 09:12:00,58.0,53.0,-100.00,South,172,-999.0,-999.0,84,-99.99,,,-99.99,,2013-05-23 16:12:00,
2013-05-23 09:22:00,62.0,55.0,-100.00,South,178,-999.0,-999.0,77,-99.99,,,-99.99,,2013-05-23 16:22:00,
2013-05-23 09:33:00,62.0,55.0,-100.00,South,178,-999.0,-999.0,77,-99.99,,,-99.99,,2013-05-23 16:33:00,
2013-05-23 09:42:00,62.0,55.0,-100.00,South,178,-999.0,-999.0,77,-99.99,,,-99.99,,2013-05-23 16:42:00,
2013-05-23 09:52:00,62.0,55.0,-100.00,South,178,-999.0,-999.0,77,-99.99,,,-99.99,,2013-05-23 16:52:00,
2013-05-23 10:22:00,63.0,54.0,-100.00,SE,129,-999.0,-999.0,73,-99.99,,,-99.99,,2013-05-23 17:22:00,
2013-05-23 10:33:00,63.0,54.0,-100.00,SE,129,-999.0,-999.0,73,-99.99,,,-99.99,,2013-05-23 17:33:00,
2013-05-23 10:42:00,63.0,54.0,-100.00,SE,129,-999.0,-999.0,73,-99.99,,,-99.99,,2013-05-23 17:42:00,
2013-05-23 10:52:00,60.0,54.0,-100.00,SSE,153,-999.0,-999.0,82,-99.99,,,-99.99,,2013-05-23 17:52:00,
2013-05-23 11:01:00,60.0,54.0,-100.00,SSE,153,-999.0,-999.0,82,-99.99,,,-99.99,,2013-05-23 18:01:00,
2013-05-23 11:11:00,60.0,54.0,-100.00,SSE,153,-999.0,-999.0,82,-99.99,,,-99.99,,2013-05-23 18:11:00,
2013-05-23 11:21:00,60.0,54.0,-100.00,ESE,117,-999.0,-999.0,81,-99.99,,,-99.99,,2013-05-23 18:21:00,
2013-05-23 11:32:00,60.0,54.0,-100.00,ESE,117,-999.0,-999.0,81,-99.99,,,-99.99,,2013-05-23 18:32:00,
2013-05-23 11:42:00,60.0,54.0,-100.00,ESE,117,-999.0,-999.0,81,-99.99,,,-99.99,,2013-05-23 18:42:00,
2013-05-23 11:52:00,59.0,54.0,-100.00,SE,136,-999.0,-999.0,84,-99.99,,,-99.99,,2013-05-23 18:52:00,
2013-05-23 12:01:00,59.0,54.0,-100.00,SE,136,-999.0,-999.0,84,-99.99,,,-99.99,,2013-05-23 19:01:00,
2013-05-23 12:11:00,59.0,54.0,-100.00,SE,136,-999.0,-999.0,84,-99.99,,,-99.99,,2013-05-23 19:11:00,
2013-05-23 12:21:00,59.0,53.0,-100.00,SE,136,-999.0,-999.0,81,-99.99,,,-99.99,,2013-05-23 19:21:00,
2013-05-23 12:32:00,59.0,53.0,-100.00,SE,136,-999.0,-999.0,81,-99.99,,,-99.99,,2013-05-23 19:32:00,
2013-05-23 12:41:00,59.0,53.0,-100.00,SE,136,-999.0,-999.0,81,-99.99,,,-99.99,,2013-05-23 19:41:00,
2013-05-23 12:52:00,62.0,54.0,-100.00,SSW,202,-999.0,-999.0,74,-99.99,,,-99.99,,2013-05-23 19:52:00,
2013-05-23 13:02:00,62.0,54.0,-100.00,SSW,202,-999.0,-999.0,74,-99.99,,,-99.99,,2013-05-23 20:02:00,
2013-05-23 13:11:00,62.0,54.0,-100.00,SSW,202,-999.0,-999.0,74,-99.99,,,-99.99,,2013-05-23 20:11:00,
2013-05-23 13:21:00,63.0,53.0,-100.00,SE,131,-999.0,-999.0,69,-99.99,,,-99.99,,2013-05-23 20:21:00,
2013-05-23 13:32:00,63.0,53.0,-100.00,SE,131,-999.0,-999.0,69,-99.99,,,-99.99,,2013-05-23 20:32:00,
2013-05-23 13:41:00,63.0,53.0,-100.00,SE,131,-999.0,-999.0,69,-99.99,,,-99.99,,2013-05-23 20:41:00,
2013-05-23 13:51:00,68.0,54.0,-100.00,South,190,-999.0,-999.0,60,-99.99,,,-99.99,,2013-05-23 20:51:00,
2013-05-23 14:01:00,68.0,54.0,-100.00,South,190,-999.0,-999.0,60,-99.99,,,-99.99,,2013-05-23 21:01:00,
2013-05-23 14:11:00,68.0,54.0,-100.00,South,190,-999.0,-999.0,60,-99.99,,,-99.99,,2013-05-23 21:11:00,
2013-05-23 14:21:00,65.0,52.0,-100.00,SW,214,-999.0,-999.0,63,-99.99,,,-99.99,,2013-05-23 21:21:00,
2013-05-23 14:32:00,65.0,52.0,-100.00,SW,214,-999.0,-999.0,63,-99.99,,,-99.99,,2013-05-23 21:32:00,
2013-05-23 14:43:00,65.0,52.0,-100.00,SW,214,-999.0,-999.0,63,-99.99,,,-99.99,,2013-05-23 21:43:00,
2013-05-23 14:53:00,67.0,52.0,-100.00,SE,146,-999.0,-999.0,58,-99.99,,,-99.99,,2013-05-23 21:53:00,
2013-05-23 15:02:00,67.0,52.0,-100.00,SE,146,-999.0,-999.0,58,-99.99,,,-99.99,,2013-05-23 22:02:00,
2013-05-23 15:12:00,67.0,52.0,-100.00,SE,146,-999.0,-999.0,58,-99.99,,,-99.99,,2013-05-23 22:12:00,
2013-05-23 15:22:00,65.0,51.0,-100.00,NNW,343,-999.0,-999.0,61,-99.99,,,-99.99,,2013-05-23 22:22:00,
2013-05-23 15:33:00,65.0,51.0,-100.00,NNW,343,-999.0,-999.0,61,-99.99,,,-99.99,,2013-05-23 22:33:00,
2013-05-23 15:42:00,65.0,51.0,-100.00,NNW,343,-999.0,-999.0,61,-99.99,,,-99.99,,2013-05-23 22:42:00,
2013-05-23 15:52:00,64.0,50.0,-100.00,West,273,-999.0,-999.0,61,-99.99,,,0.00,,2013-05-23 22:52:00,
2013-05-23 16:01:00,64.0,50.0,-100.00,West,273,-999.0,-999.0,61,-99.99,,,0.00,,2013-05-23 23:01:00,
2013-05-23 16:11:00,64.0,50.0,-100.00,West,273,-999.0,-999.0,61,-99.99,,,0.00,,2013-05-23 23:11:00,
2013-05-23 16:21:00,63.0,51.0,-100.00,WSW,245,-999.0,-999.0,65,-99.99,,,-99.99,,2013-05-23 23:21:00,
2013-05-23 16:31:00,63.0,51.0,-100.00,WSW,245,-999.0,-999.0,65,-99.99,,,-99.99,,2013-05-23 23:31:00,
2013-05-23 16:42:00,63.0,51.0,-100.00,WSW,245,-999.0,-999.0,65,-99.99,,,-99.99,,2013-05-23 23:42:00,
2013-05-23 16:52:00,63.0,51.0,-100.00,WSW,240,-999.0,-999.0,66,-99.99,,,-99.99,,2013-05-23 23:52:00,
2013-05-23 17:01:00,63.0,51.0,-100.00,WSW,240,-999.0,-999.0,66,-99.99,,,-99.99,,2013-05-24 00:01:00,
2013-05-23 17:11:00,63.0,51.0,-100.00,WSW,240,-999.0,-999.0,66,-99.99,,,-99.99,,2013-05-24 00:11:00,
2013-05-23 17:21:00,63.0,51.0,-100.00,WSW,251,-999.0,-999.0,65,-99.99,,,-99.99,,2013-05-24 00:21:00,
2013-05-23 17:31:00,63.0,51.0,-100.00,WSW,251,-999.0,-999.0,65,-99.99,,,-99.99,,2013-05-24 00:31:00,
2013-05-23 17:42:00,63.0,51.0,-100.00,WSW,251,-999.0,-999.0,65,-99.99,,,-99.99,,2013-05-24 00:42:00,
2013-05-23 17:52:00,61.0,50.0,-100.00,WSW,241,-999.0,-999.0,67,-99.99,,,-99.99,,2013-05-24 00:52:00,
2013-05-23 18:01:00,61.0,50.0,-100.00,WSW,241,-999.0,-999.0,67,-99.99,,,-99.99,,2013-05-24 01:01:00,
2013-05-23 18:12:00,61.0,50.0,-100.00,WSW,241,-999.0,-999.0,67,-99.99,,,-99.99,,2013-05-24 01:12:00,
2013-05-23 19:21:00,57.0,48.0,-100.00,WSW,253,-999.0,-999.0,72,-99.99,,,-99.99,,2013-05-24 02:21:00,
2013-05-23 19:32:00,57.0,48.0,-100.00,WSW,253,-999.0,-999.0,72,-99.99,,,-99.99,,2013-05-24 02:32:00,
2013-05-23 19:42:00,57.0,48.0,-100.00,WSW,253,-999.0,-999.0,72,-99.99,,,-99.99,,2013-05-24 02:42:00,
2013-05-23 19:52:00,55.0,48.0,-100.00,West,276,-999.0,-999.0,76,-99.99,,,-99.99,,2013-05-24 02:52:00,
2013-05-23 20:02:00,55.0,48.0,-100.00,West,276,-999.0,-999.0,76,-99.99,,,-99.99,,2013-05-24 03:02:00,
2013-05-23 20:11:00,55.0,48.0,-100.00,West,276,-999.0,-999.0,76,-99.99,,,-99.99,,2013-05-24 03:11:00,
2013-05-23 20:21:00,55.0,48.0,-100.00,West,276,-999.0,-999.0,76,-99.99,,,-99.99,,2013-05-24 03:21:00,
2013-05-23 20:53:00,55.0,48.0,-100.00,North,8,-999.0,-999.0,77,-99.99,,,-99.99,,2013-05-24 03:53:00,
2013-05-23 21:03:00,55.0,48.0,-100.00,North,8,-999.0,-999.0,77,-99.99,,,-99.99,,2013-05-24 04:03:00,
2013-05-23 21:12:00,55.0,48.0,-100.00,North,8,-999.0,-999.0,77,-99.99,,,-99.99,,2013-05-24 04:12:00,
2013-05-23 21:22:00,54.0,47.0,-100.00,NNE,15,-999.0,-999.0,78,-99.99,,,-99.99,,2013-05-24 04:22:00,
2013-05-23 21:33:00,54.0,47.0,-100.00,NNE,15,-999.0,-999.0,78,-99.99,,,-99.99,,2013-05-24 04:33:00,
2013-05-23 21:42:00,54.0,47.0,-100.00,NNE,15,-999.0,-999.0,78,-99.99,,,-99.99,,2013-05-24 04:42:00,
2013-05-23 21:52:00,55.0,47.0,-100.00,NNE,24,3.0,-999.0,74,-99.99,,,-99.99,,2013-05-24 04:52:00,
2013-05-23 22:02:00,55.0,47.0,-100.00,NNE,24,3.0,-999.0,74,-99.99,,,-99.99,,2013-05-24 05:02:00,
2013-05-23 22:12:00,55.0,47.0,-100.00,NNE,24,3.0,-999.0,74,-99.99,,,-99.99,,2013-05-24 05:12:00,
2013-05-23 22:22:00,55.0,47.0,-100.00,North,0,0.0,-999.0,75,-99.99,,,-99.99,,2013-05-24 05:22:00,
2013-05-23 22:32:00,55.0,47.0,-100.00,North,0,0.0,-999.0,75,-99.99,,,-99.99,,2013-05-24 05:32:00,
2013-05-23 22:42:00,55.0,47.0,-100.00,North,0,0.0,-999.0,75,-99.99,,,-99.99,,2013-05-24 05:42:00,
2013-05-23 22:52:00,55.0,47.0,-100.00,North,0,0.0,-999.0,75,-99.99,,,-99.99,,2013-05-24 05:52:00,
2013-05-23 23:21:00,55.0,49.0,-100.00,NNE,29,-999.0,-999.0,80,-99.99,,,-99.99,,2013-05-24 06:21:00,
2013-05-23 23:32:00,55.0,49.0,-100.00,NNE,29,-999.0,-999.0,80,-99.99,,,-99.99,,2013-05-24 06:32:00,
2013-05-23 23:41:00,55.0,49.0,-100.00,NNE,29,-999.0,-999.0,80,-99.99,,,-99.99,,2013-05-24 06:41:00,
2013-05-23 23:52:00,55.0,49.0,-100.00,NNE,29,-999.0,-999.0,80,-99.99,,,-99.99,,2013-05-24 06:52:00,